La Roche-sur-Yon Airport

Airport
ICAO code: 
LFRI
IATA Code: 
EDM
Summary
ICAO Region: 
EUR
Territory: 
Location: 
, Pays de la Loire
Serving: 
La Roche-sur-yon
Elevation: 
299 ft
Coordinates: 
Aerial View: 
46° 42' 6.998" N, 1° 22' 43.05" W
Metar
Observation
LFRI 302100Z AUTO 20005KT 9999 BKN034 09/08 Q1018 NOSIG
Station
La Roche-Sur-Yon
Date/Time
2021-11-30 21:00:00
Wind direction
200°
Wind speed
05 kts
Lowest cloud amount
broken clouds
Temperature
9°C
Dew point
8°C
Humidity
93%
QNH
1018 hPa
Weather condition
n/a

Runways

Designator Length Width Surface Rops
10/28 1550 30 ASP No/No
Airport map: 
Aerial View: 

SKYbrary Partners:

Safety knowledge contributed by: